Time;durP1;ratioP1;P1;durP2;ratioP2;P2;SDS_P1;SDS_P2;PMS_P1;PMS_P2;Temp;Humidity;BMP_temperature;BMP_pressure;BME280_temperature;BME280_humidity;BME280_pressure;Samples;Min_cycle;Max_cycle;Signal;HPM_P1;HPM_P2
2022/11/11 00:00:37;;;;;;;5.93;3.38;;;;;;;9.64;62.52;102253.03;690068;28;1539;-81
2022/11/11 00:01:18;;;;;;;5.93;3.60;;;;;;;9.55;62.57;102259.53;690114;28;1234;-81
2022/11/11 00:01:58;;;;;;;7.93;4.10;;;;;;;9.54;62.90;102260.34;692795;28;1699;-80
2022/11/11 00:02:37;;;;;;;8.98;4.10;;;;;;;9.72;62.73;102273.50;688672;28;1208;-80
2022/11/11 00:03:16;;;;;;;5.38;3.58;;;;;;;9.68;62.41;102258.50;692292;28;1229;-80
2022/11/11 00:03:55;;;;;;;5.55;4.13;;;;;;;9.69;62.18;102259.38;687528;28;1348;-80
2022/11/11 00:04:35;;;;;;;7.47;4.20;;;;;;;9.69;62.24;102262.00;687706;28;803;-80
2022/11/11 00:05:15;;;;;;;6.22;3.85;;;;;;;9.68;62.25;102265.41;689273;28;1967;-80
2022/11/11 00:05:58;;;;;;;6.28;3.65;;;;;;;9.64;62.03;102260.88;694526;28;1395;-80
2022/11/11 00:06:37;;;;;;;5.03;3.92;;;;;;;9.62;62.17;102265.97;696017;28;1844;-81
2022/11/11 00:07:16;;;;;;;4.97;3.85;;;;;;;9.59;62.09;102255.41;696548;28;1168;-80
2022/11/11 00:08:10;;;;;;;6.38;3.97;;;;;;;9.66;62.30;102269.66;694204;28;1221;-80
2022/11/11 00:08:48;;;;;;;8.60;4.20;;;;;;;9.42;62.93;102247.53;695856;28;1505;-80
2022/11/11 00:09:28;;;;;;;6.38;3.92;;;;;;;9.57;62.72;102265.72;693282;28;1346;-81
2022/11/11 00:10:07;;;;;;;5.40;3.88;;;;;;;9.39;62.79;102249.06;693527;28;2073;-80
2022/11/11 00:10:47;;;;;;;4.50;3.70;;;;;;;9.25;63.14;102254.38;689090;28;1246;-81
2022/11/11 00:11:25;;;;;;;5.18;3.70;;;;;;;9.29;63.30;102242.41;685292;28;956;-80
2022/11/11 00:12:05;;;;;;;5.93;3.70;;;;;;;9.35;63.36;102248.00;687698;28;1663;-81
2022/11/11 00:12:44;;;;;;;4.43;3.72;;;;;;;9.45;63.23;102260.72;690704;28;1094;-80
2022/11/11 00:13:23;;;;;;;4.63;4.00;;;;;;;9.37;62.93;102250.66;692937;28;917;-81
2022/11/11 00:14:02;;;;;;;4.75;3.72;;;;;;;9.32;63.09;102248.72;689804;28;1752;-80
2022/11/11 00:14:41;;;;;;;5.07;3.70;;;;;;;9.34;62.71;102266.13;690818;28;1175;-80
2022/11/11 00:15:20;;;;;;;8.10;4.05;;;;;;;9.07;63.70;102253.31;698108;28;1236;-80
2022/11/11 00:16:10;;;;;;;6.95;4.13;;;;;;;9.01;63.89;102254.75;687997;28;1840;-81
2022/11/11 00:25:32;;;;;;;4.35;3.63;;;;;;;9.06;64.86;102252.41;695610;28;877;-80
2022/11/11 00:26:13;;;;;;;5.03;3.67;;;;;;;9.11;64.76;102257.88;695125;28;1271;-81
2022/11/11 00:26:52;;;;;;;6.75;4.30;;;;;;;9.10;64.62;102258.69;689941;28;1744;-80
2022/11/11 00:27:32;;;;;;;7.28;4.10;;;;;;;9.16;64.30;102266.88;693336;28;957;-80
2022/11/11 00:28:11;;;;;;;7.13;3.60;;;;;;;9.15;64.56;102254.66;691368;28;1519;-80
2022/11/11 00:28:50;;;;;;;6.82;3.70;;;;;;;9.11;64.61;102255.28;690427;28;1193;-80
2022/11/11 00:29:30;;;;;;;6.43;3.80;;;;;;;9.08;64.74;102247.31;689974;28;930;-80
2022/11/11 00:30:09;;;;;;;5.60;3.95;;;;;;;9.18;64.60;102260.94;691086;28;1498;-81
2022/11/11 00:30:49;;;;;;;5.30;3.80;;;;;;;9.15;64.63;102249.47;696108;28;1084;-81
2022/11/11 00:31:27;;;;;;;5.15;3.65;;;;;;;9.18;65.01;102252.22;695768;28;908;-80
2022/11/11 00:32:25;;;;;;;5.13;3.65;;;;;;;9.26;64.42;102256.16;693864;28;1625;-81
2022/11/11 00:33:04;;;;;;;8.98;4.20;;;;;;;9.14;64.84;102239.81;693149;28;1117;-81
2022/11/11 00:33:44;;;;;;;6.35;4.07;;;;;;;9.17;64.67;102246.09;692614;28;1021;-80
2022/11/11 00:34:23;;;;;;;6.93;4.00;;;;;;;9.22;64.51;102233.34;693495;28;909;-81
2022/11/11 00:36:00;;;;;;;5.97;3.50;;;;;;;9.19;64.44;102243.59;693609;28;1426;-81
2022/11/11 00:36:40;;;;;;;6.70;3.80;;;;;;;9.25;65.17;102248.25;690658;28;1412;-80
2022/11/11 00:37:19;;;;;;;6.30;3.70;;;;;;;9.32;64.36;102245.19;692619;28;1193;-81
2022/11/11 00:38:09;;;;;;;4.55;3.95;;;;;;;9.40;64.57;102248.25;689234;28;1731;-80
2022/11/11 00:38:48;;;;;;;5.95;3.60;;;;;;;9.42;64.71;102241.41;690549;28;1137;-80
2022/11/11 00:39:27;;;;;;;7.18;3.70;;;;;;;9.44;63.98;102238.06;695439;28;774;-80
2022/11/11 00:40:07;;;;;;;6.60;3.80;;;;;;;9.50;64.01;102252.25;695038;28;1690;-80
2022/11/11 00:40:46;;;;;;;7.90;4.00;;;;;;;9.55;63.87;102264.75;693202;28;1002;-81
2022/11/11 00:41:26;;;;;;;7.63;3.92;;;;;;;9.46;64.04;102235.53;690620;28;1119;-80
2022/11/11 00:42:06;;;;;;;5.40;4.03;;;;;;;9.50;64.03;102245.34;689761;28;1271;-80
2022/11/11 00:42:45;;;;;;;7.05;3.78;;;;;;;9.53;63.85;102248.09;690690;28;984;-81
2022/11/11 00:43:24;;;;;;;5.70;3.67;;;;;;;9.52;63.80;102240.22;690105;28;2013;-80
2022/11/11 00:44:03;;;;;;;5.63;3.80;;;;;;;9.53;63.84;102242.91;692982;28;1431;-81
2022/11/11 00:45:02;;;;;;;5.00;3.97;;;;;;;9.60;63.88;102250.25;694199;28;1314;-80
2022/11/11 00:50:57;;;;;;;8.70;3.90;;;;;;;9.85;63.28;102264.63;693506;28;1034;-81
2022/11/11 00:50:57;;;;;;;7.97;4.00;;;;;;;9.60;63.51;102246.75;694308;28;1506;-81
2022/11/11 00:51:37;;;;;;;8.27;3.80;;;;;;;9.86;63.21;102243.00;693967;28;1133;-80
2022/11/11 00:52:16;;;;;;;5.32;3.60;;;;;;;9.87;63.40;102252.59;692368;28;1206;-81
2022/11/11 00:52:55;;;;;;;3.85;3.40;;;;;;;9.80;63.36;102234.81;690294;28;1706;-81
2022/11/11 00:53:39;;;;;;;4.70;3.40;;;;;;;9.79;62.93;102242.56;687596;28;1912;-81
2022/11/11 00:54:18;;;;;;;4.20;3.50;;;;;;;9.80;63.05;102240.03;688002;28;1470;-80
2022/11/11 00:54:57;;;;;;;4.00;3.30;;;;;;;9.82;63.09;102240.09;688124;28;1456;-80
2022/11/11 00:55:36;;;;;;;4.30;3.10;;;;;;;9.81;63.18;102235.72;696184;28;1038;-80
2022/11/11 00:56:16;;;;;;;4.20;3.30;;;;;;;9.83;63.02;102239.31;695294;28;1233;-80
2022/11/11 00:56:55;;;;;;;5.50;3.83;;;;;;;9.82;62.90;102243.63;695154;28;1450;-81
2022/11/11 00:57:33;;;;;;;4.95;3.70;;;;;;;9.91;62.90;102244.94;693457;28;889;-80
2022/11/11 00:58:15;;;;;;;5.65;3.50;;;;;;;9.83;63.07;102245.41;688586;28;1271;-80
2022/11/11 00:58:55;;;;;;;5.25;3.47;;;;;;;9.91;62.81;102250.16;687616;28;1734;-80
2022/11/11 01:00:14;;;;;;;6.75;3.65;;;;;;;10.00;62.84;102263.69;687718;28;913;-80
2022/11/11 01:00:53;;;;;;;4.90;3.40;;;;;;;10.04;62.80;102265.66;692578;28;1482;-81
2022/11/11 01:01:34;;;;;;;4.53;3.42;;;;;;;9.98;62.44;102249.69;690204;28;929;-80
2022/11/11 01:02:13;;;;;;;4.60;3.58;;;;;;;10.03;62.47;102253.44;689237;28;1289;-80
2022/11/11 01:02:52;;;;;;;4.00;3.53;;;;;;;10.07;62.51;102246.69;690073;28;2027;-82
2022/11/11 01:03:31;;;;;;;4.53;3.78;;;;;;;10.06;62.50;102253.59;687818;28;1172;-81
2022/11/11 01:04:11;;;;;;;4.53;3.53;;;;;;;10.11;62.14;102261.66;686357;28;1233;-81
2022/11/11 01:04:50;;;;;;;6.20;3.30;;;;;;;10.02;62.14;102246.44;687568;28;1345;-80
2022/11/11 01:05:29;;;;;;;6.72;3.60;;;;;;;10.12;61.90;102266.97;693155;28;1493;-81
2022/11/11 01:06:11;;;;;;;6.63;3.70;;;;;;;10.03;61.93;102247.31;695943;28;1487;-81
2022/11/11 01:06:50;;;;;;;5.95;3.53;;;;;;;9.99;62.28;102246.25;690622;28;1526;-82
2022/11/11 01:07:29;;;;;;;4.53;3.60;;;;;;;10.11;62.38;102262.56;690740;28;779;-80
2022/11/11 01:08:08;;;;;;;5.07;3.83;;;;;;;10.06;62.21;102253.59;688321;28;1225;-80
2022/11/11 01:08:47;;;;;;;7.13;3.63;;;;;;;10.19;62.09;102269.91;689846;28;1577;-80
2022/11/11 01:09:26;;;;;;;5.50;3.70;;;;;;;10.14;61.82;102267.94;687854;28;1536;-80
2022/11/11 01:10:06;;;;;;;4.85;3.53;;;;;;;10.22;62.16;102264.84;687108;28;1797;-80
2022/11/11 01:10:47;;;;;;;4.30;3.53;;;;;;;10.13;61.75;102258.31;687537;28;1879;-80
2022/11/11 01:11:26;;;;;;;5.53;3.67;;;;;;;10.11;61.94;102252.13;685779;28;1457;-81
2022/11/11 01:12:05;;;;;;;7.00;3.80;;;;;;;10.19;61.67;102265.59;692708;28;1213;-80
2022/11/11 01:12:44;;;;;;;8.43;3.95;;;;;;;10.20;61.49;102261.28;690318;28;946;-81
2022/11/11 01:13:26;;;;;;;6.80;3.70;;;;;;;10.13;61.50;102253.13;686969;28;1809;-80
2022/11/11 01:14:05;;;;;;;5.60;3.50;;;;;;;10.13;61.71;102255.72;681710;28;1197;-80
2022/11/11 01:14:44;;;;;;;4.28;3.33;;;;;;;10.10;61.60;102252.97;685234;28;1136;-80
2022/11/11 01:15:23;;;;;;;5.50;3.50;;;;;;;10.14;61.85;102262.72;685201;28;1295;-81
2022/11/11 01:16:06;;;;;;;5.97;3.50;;;;;;;10.07;61.75;102247.56;691667;28;1492;-80
2022/11/11 01:16:45;;;;;;;6.30;3.75;;;;;;;10.06;61.81;102245.75;690373;28;950;-81
2022/11/11 01:17:24;;;;;;;6.82;3.75;;;;;;;10.06;61.81;102253.59;689731;28;1237;-80
2022/11/11 01:18:04;;;;;;;7.78;3.80;;;;;;;10.09;61.78;102258.97;688421;28;1257;-80
2022/11/11 01:18:43;;;;;;;7.10;3.70;;;;;;;10.05;61.78;102253.50;689387;28;1638;-80
2022/11/11 01:19:22;;;;;;;4.72;3.70;;;;;;;10.00;61.65;102254.16;690038;28;1182;-80
2022/11/11 01:20:01;;;;;;;4.50;3.45;;;;;;;10.00;61.97;102263.69;687613;28;1472;-80
2022/11/11 01:20:41;;;;;;;5.35;3.53;;;;;;;10.03;62.11;102269.09;690630;28;1165;-80
2022/11/11 01:21:22;;;;;;;5.05;3.42;;;;;;;9.94;62.01;102258.16;692269;28;1269;-80
2022/11/11 01:22:01;;;;;;;5.53;3.45;;;;;;;9.99;62.14;102267.13;689656;28;1309;-80
2022/11/11 01:22:40;;;;;;;6.60;3.90;;;;;;;9.97;62.24;102263.53;690635;28;1214;-80
2022/11/11 01:23:19;;;;;;;4.85;3.50;;;;;;;9.90;62.41;102261.41;689819;28;1206;-80
2022/11/11 01:24:00;;;;;;;5.63;3.70;;;;;;;9.89;61.92;102257.00;687471;28;1353;-80
2022/11/11 01:25:06;;;;;;;5.97;3.70;;;;;;;10.00;62.10;102271.50;687260;28;1408;-80
2022/11/11 01:25:45;;;;;;;6.13;4.00;;;;;;;10.00;62.19;102263.69;690815;28;1336;-80
2022/11/11 01:26:27;;;;;;;5.72;3.30;;;;;;;9.89;62.00;102244.84;685747;28;1163;-81
2022/11/11 01:27:06;;;;;;;4.90;3.10;;;;;;;9.91;62.10;102257.97;690316;28;1468;-80
2022/11/11 01:27:45;;;;;;;5.28;3.70;;;;;;;9.90;62.24;102262.31;690289;28;1609;-81
2022/11/11 01:28:24;;;;;;;5.10;3.80;;;;;;;9.85;62.25;102268.97;688106;28;1195;-80
2022/11/11 01:29:03;;;;;;;6.65;3.60;;;;;;;9.77;62.52;102255.50;689696;28;1115;-80
2022/11/11 01:29:42;;;;;;;4.40;3.15;;;;;;;9.73;62.41;102250.94;686696;28;1808;-80
2022/11/11 01:30:21;;;;;;;4.63;3.70;;;;;;;9.75;62.59;102259.72;689658;28;1262;-80
2022/11/11 01:31:05;;;;;;;6.50;3.80;;;;;;;9.71;62.99;102248.25;686539;28;1733;-80
2022/11/11 01:31:44;;;;;;;5.50;3.85;;;;;;;9.72;62.50;102256.97;689469;28;1877;-81
2022/11/11 01:32:23;;;;;;;5.53;4.00;;;;;;;9.77;62.60;102259.84;690977;28;739;-81
2022/11/11 01:33:03;;;;;;;5.35;3.90;;;;;;;9.74;62.58;102257.94;686836;28;1194;-81
2022/11/11 01:33:43;;;;;;;3.90;3.47;;;;;;;9.67;62.46;102248.00;687045;28;1339;-81
2022/11/11 01:34:22;;;;;;;4.60;3.58;;;;;;;9.71;63.00;102266.50;690579;28;1240;-81
2022/11/11 01:35:01;;;;;;;5.35;3.72;;;;;;;9.66;62.91;102254.94;687733;28;1870;-80
2022/11/11 01:35:41;;;;;;;5.82;3.50;;;;;;;9.68;62.83;102266.34;690010;28;1546;-80
2022/11/11 01:36:26;;;;;;;8.35;3.95;;;;;;;9.76;62.88;102273.69;687916;28;1321;-80
2022/11/11 01:37:05;;;;;;;10.43;4.38;;;;;;;9.73;62.75;102269.19;690790;28;1070;-80
2022/11/11 01:37:44;;;;;;;6.55;3.60;;;;;;;9.65;62.94;102262.66;689626;28;1153;-80
2022/11/11 01:38:22;;;;;;;6.88;3.50;;;;;;;9.64;63.02;102260.88;693502;28;1479;-80
2022/11/11 01:39:02;;;;;;;7.57;3.70;;;;;;;9.58;63.00;102249.28;693540;28;1168;-80
2022/11/11 01:39:41;;;;;;;7.38;4.00;;;;;;;9.59;63.05;102260.59;691055;28;956;-80
2022/11/11 01:40:20;;;;;;;5.68;3.58;;;;;;;9.56;62.89;102260.41;688101;28;2178;-81
2022/11/11 01:40:59;;;;;;;5.00;3.35;;;;;;;9.56;63.21;102256.13;687565;28;1757;-80
2022/11/11 01:41:39;;;;;;;7.05;4.18;;;;;;;9.63;63.02;102266.91;684330;28;1210;-81
2022/11/11 01:42:18;;;;;;;8.10;3.78;;;;;;;9.52;62.98;102251.53;688219;28;1075;-80
2022/11/11 01:43:03;;;;;;;8.40;3.70;;;;;;;9.61;63.06;102274.63;687077;28;1544;-80
2022/11/11 01:43:42;;;;;;;6.28;3.60;;;;;;;9.50;63.23;102254.84;690401;28;1117;-80
2022/11/11 01:44:47;;;;;;;6.40;3.60;;;;;;;9.54;63.48;102277.69;698216;28;973;-80
2022/11/11 01:45:53;;;;;;;6.32;3.58;;;;;;;9.53;63.43;102284.59;696741;28;1557;-80
2022/11/11 01:47:06;;;;;;;5.38;3.80;;;;;;;9.42;63.65;102259.66;692140;28;1622;-80
2022/11/11 01:50:04;;;;;;;4.95;4.00;;;;;;;9.43;63.58;102261.44;694925;28;1161;-81
2022/11/11 01:50:43;;;;;;;7.20;4.20;;;;;;;9.47;63.50;102271.25;695087;28;1495;-80
2022/11/11 01:51:40;;;;;;;5.25;4.15;;;;;;;9.43;63.50;102258.84;693796;28;835;-80
2022/11/11 01:52:31;;;;;;;5.38;3.90;;;;;;;9.55;63.54;102277.78;694037;28;1313;-80
2022/11/11 01:53:10;;;;;;;5.63;3.88;;;;;;;9.46;63.74;102256.38;695390;28;1192;-80
2022/11/11 01:53:57;;;;;;;4.88;3.70;;;;;;;9.58;63.66;102267.50;693269;28;1943;-80
2022/11/11 01:54:42;;;;;;;5.60;4.10;;;;;;;9.63;63.53;102279.94;689163;28;1311;-80
2022/11/11 01:55:22;;;;;;;8.45;4.05;;;;;;;9.54;63.17;102260.34;684898;28;1543;-80
2022/11/11 01:56:02;;;;;;;13.45;4.20;;;;;;;9.58;63.39;102266.59;685008;28;1851;-80
2022/11/11 01:56:47;;;;;;;7.70;3.90;;;;;;;9.60;63.35;102267.63;688062;28;1062;-80
2022/11/11 01:57:40;;;;;;;7.35;3.72;;;;;;;9.59;63.46;102264.09;692275;28;1624;-80
2022/11/11 01:58:20;;;;;;;5.55;3.78;;;;;;;9.67;63.31;102274.06;693258;28;1528;-80
2022/11/11 01:59:05;;;;;;;5.30;3.70;;;;;;;9.60;63.52;102270.22;690654;28;1808;-80
2022/11/11 01:59:49;;;;;;;8.65;4.10;;;;;;;9.71;63.62;102278.66;688380;28;958;-80
2022/11/11 02:00:28;;;;;;;9.75;4.85;;;;;;;9.74;63.07;102276.19;692966;28;822;-80
2022/11/11 02:01:07;;;;;;;6.47;4.40;;;;;;;9.84;63.08;102278.50;690201;28;1923;-80
2022/11/11 02:01:47;;;;;;;7.15;4.13;;;;;;;9.82;62.80;102272.31;687916;28;1035;-80
2022/11/11 02:02:50;;;;;;;8.55;4.50;;;;;;;9.98;63.03;102288.78;688951;28;1731;-80
2022/11/11 02:03:32;;;;;;;5.40;3.70;;;;;;;9.94;62.46;102276.41;691157;28;1631;-80
2022/11/11 02:06:10;;;;;;;6.15;4.10;;;;;;;9.99;62.29;102268.03;691725;28;1382;-81
2022/11/11 02:06:53;;;;;;;6.65;4.00;;;;;;;10.03;62.49;102274.31;686707;28;1442;-80
2022/11/11 02:07:34;;;;;;;7.43;4.20;;;;;;;9.98;62.34;102254.88;688202;28;999;-81
2022/11/11 02:08:34;;;;;;;6.57;3.97;;;;;;;10.01;62.18;102281.13;693646;28;1099;-80
2022/11/11 02:09:13;;;;;;;6.10;3.90;;;;;;;10.01;62.25;102270.69;694604;28;1113;-80
2022/11/11 02:09:53;;;;;;;7.47;4.30;;;;;;;10.07;62.09;102271.03;695251;28;1820;-80
2022/11/11 02:10:33;;;;;;;6.88;4.20;;;;;;;10.14;61.64;102278.38;693315;28;819;-80
2022/11/11 02:14:34;;;;;;;5.78;4.20;;;;;;;10.13;61.84;102280.91;696887;28;1279;-80
2022/11/11 02:15:12;;;;;;;5.95;4.30;;;;;;;10.37;61.19;102294.41;692883;28;1256;-80
2022/11/11 02:15:51;;;;;;;6.15;4.43;;;;;;;10.27;60.98;102273.88;693248;28;1620;-80
2022/11/11 02:16:30;;;;;;;6.70;4.03;;;;;;;10.25;61.08;102273.78;690582;28;1012;-81
2022/11/11 02:17:12;;;;;;;4.90;3.90;;;;;;;10.27;61.21;102271.25;692384;28;1986;-81
2022/11/11 02:17:52;;;;;;;5.68;3.75;;;;;;;10.33;61.13;102282.00;690159;28;1899;-80
2022/11/11 02:18:32;;;;;;;5.60;3.80;;;;;;;10.28;61.31;102273.06;696076;28;858;-81
2022/11/11 02:19:13;;;;;;;6.05;3.92;;;;;;;10.34;61.22;102281.22;691656;28;1499;-80
2022/11/11 02:19:58;;;;;;;5.93;4.05;;;;;;;10.33;61.06;102288.94;694874;28;1792;-81
2022/11/11 02:20:42;;;;;;;5.30;4.20;;;;;;;10.23;61.01;102274.50;689825;28;1012;-80
2022/11/11 02:21:40;;;;;;;6.32;4.60;;;;;;;10.32;61.30;102293.25;693126;28;1182;-80
2022/11/11 02:22:40;;;;;;;6.30;3.90;;;;;;;10.28;61.31;102288.72;691104;28;1225;-80
2022/11/11 02:23:55;;;;;;;5.90;3.80;;;;;;;10.25;61.11;102275.47;697499;28;1185;-80
2022/11/11 02:24:37;;;;;;;5.88;4.10;;;;;;;10.25;61.01;102272.88;687799;28;772;-80
2022/11/11 02:25:20;;;;;;;7.70;4.50;;;;;;;10.17;61.36;102258.47;689466;28;1980;-80
2022/11/11 02:26:01;;;;;;;8.27;4.32;;;;;;;10.28;61.17;102276.53;691245;28;1622;-81
2022/11/11 02:26:43;;;;;;;5.75;4.00;;;;;;;10.30;61.12;102291.41;690546;28;1181;-80
2022/11/11 02:27:25;;;;;;;6.07;4.22;;;;;;;10.26;61.17;102278.19;693127;28;1401;-80
2022/11/11 02:28:06;;;;;;;5.95;4.05;;;;;;;10.29;61.32;102295.72;690401;28;1954;-80
2022/11/11 02:28:46;;;;;;;5.30;3.70;;;;;;;10.23;60.83;102279.72;692680;28;1055;-80
2022/11/11 02:29:25;;;;;;;6.78;4.10;;;;;;;10.26;61.22;102292.94;690861;28;1295;-80
2022/11/11 02:30:06;;;;;;;4.35;3.90;;;;;;;10.24;61.01;102276.28;691164;28;1460;-81
2022/11/11 02:30:45;;;;;;;5.50;3.90;;;;;;;10.22;61.16;102275.28;688308;28;930;-80
2022/11/11 02:31:28;;;;;;;5.57;3.70;;;;;;;10.25;61.08;102291.13;688062;28;1130;-81
2022/11/11 02:32:07;;;;;;;6.65;3.90;;;;;;;10.11;61.29;102267.78;688053;28;1626;-80
2022/11/11 02:32:49;;;;;;;7.25;3.97;;;;;;;10.11;61.43;102283.44;682835;29;1113;-80
2022/11/11 02:33:28;;;;;;;4.20;3.80;;;;;;;10.13;61.05;102278.28;691029;28;1156;-80
2022/11/11 02:34:07;;;;;;;5.40;3.90;;;;;;;10.12;61.34;102284.31;688678;28;1595;-80
2022/11/11 02:34:46;;;;;;;6.05;4.00;;;;;;;10.14;61.47;102281.00;682456;28;1276;-80
2022/11/11 02:35:32;;;;;;;5.30;3.65;;;;;;;10.22;61.30;102291.84;682960;29;807;-80
2022/11/11 02:36:14;;;;;;;4.40;3.80;;;;;;;10.23;61.42;102284.94;691100;28;1407;-80
2022/11/11 02:36:54;;;;;;;7.30;4.05;;;;;;;10.12;61.10;102274.81;690411;28;1617;-80
2022/11/11 02:37:33;;;;;;;6.22;3.80;;;;;;;10.14;60.89;102273.16;691006;28;916;-81
2022/11/11 02:38:12;;;;;;;5.72;3.72;;;;;;;10.11;61.05;102273.00;687736;28;1313;-80
2022/11/11 02:38:51;;;;;;;6.15;3.58;;;;;;;10.16;61.12;102275.88;693041;28;1624;-81
2022/11/11 02:39:34;;;;;;;5.70;3.50;;;;;;;10.12;61.56;102280.03;690402;28;902;-81
2022/11/11 02:40:17;;;;;;;4.72;3.70;;;;;;;10.21;61.36;102289.16;694873;28;1742;-81
2022/11/11 02:41:57;;;;;;;4.45;3.72;;;;;;;10.19;61.00;102285.56;691374;28;2349;-81
2022/11/11 02:42:37;;;;;;;5.57;3.72;;;;;;;10.14;61.43;102270.56;696067;28;1166;-80
2022/11/11 02:43:16;;;;;;;6.45;4.00;;;;;;;10.19;61.01;102278.63;694292;28;1190;-80
2022/11/11 02:43:55;;;;;;;6.70;3.88;;;;;;;10.26;61.01;102277.31;694915;28;1987;-80
2022/11/11 02:44:34;;;;;;;4.63;3.75;;;;;;;10.26;60.92;102275.56;685553;28;939;-81
2022/11/11 02:45:13;;;;;;;5.47;3.83;;;;;;;10.24;60.77;102269.38;689321;28;2022;-80
2022/11/11 02:45:52;;;;;;;4.60;3.60;;;;;;;10.23;60.92;102269.28;686773;28;1642;-80
2022/11/11 02:46:31;;;;;;;5.85;3.40;;;;;;;10.26;60.82;102272.09;691124;28;779;-80
2022/11/11 02:47:11;;;;;;;7.20;4.10;;;;;;;10.20;60.95;102262.16;693015;28;1343;-80
2022/11/11 02:47:50;;;;;;;5.10;3.95;;;;;;;10.25;60.77;102265.94;693661;28;1924;-80
2022/11/11 02:48:30;;;;;;;5.30;3.80;;;;;;;10.21;60.85;102257.84;688145;28;2148;-80
2022/11/11 02:49:09;;;;;;;4.47;3.55;;;;;;;10.20;61.10;102259.53;688658;28;1431;-80
2022/11/11 02:49:48;;;;;;;5.72;3.90;;;;;;;10.30;60.90;102270.53;690445;28;1042;-80
2022/11/11 02:50:27;;;;;;;5.95;3.90;;;;;;;10.25;60.67;102272.88;690597;28;819;-81
2022/11/11 02:51:07;;;;;;;6.88;4.00;;;;;;;10.22;60.72;102267.47;690704;28;1884;-81
2022/11/11 02:51:47;;;;;;;8.93;3.90;;;;;;;10.31;60.92;102283.63;693615;28;1019;-80
2022/11/11 02:52:26;;;;;;;7.20;3.67;;;;;;;10.30;60.75;102279.25;695343;28;1533;-80
2022/11/11 02:53:05;;;;;;;7.70;4.00;;;;;;;10.25;60.58;102272.88;695335;28;1502;-80
2022/11/11 02:53:44;;;;;;;4.22;3.50;;;;;;;10.25;60.80;102275.47;693730;28;1213;-80
2022/11/11 02:54:23;;;;;;;7.00;3.50;;;;;;;10.28;60.45;102278.28;685553;28;1738;-80
2022/11/11 02:55:14;;;;;;;5.50;3.60;;;;;;;10.22;60.92;102280.50;689642;28;1593;-80
2022/11/11 02:55:53;;;;;;;4.57;3.72;;;;;;;10.21;60.80;102279.59;687956;28;1384;-81
2022/11/11 02:57:30;;;;;;;5.05;3.70;;;;;;;10.18;61.00;102286.41;687304;28;1184;-80
2022/11/11 02:58:10;;;;;;;10.73;3.60;;;;;;;10.14;60.96;102267.94;693451;28;1252;-80
2022/11/11 02:58:49;;;;;;;11.10;3.90;;;;;;;10.18;60.79;102274.22;690895;28;1703;-81
2022/11/11 02:59:29;;;;;;;4.95;3.90;;;;;;;10.19;60.98;102277.75;692869;28;2183;-80
2022/11/11 03:00:09;;;;;;;5.40;3.50;;;;;;;10.17;60.78;102267.22;690403;28;1626;-80
2022/11/11 03:00:48;;;;;;;5.85;3.60;;;;;;;10.22;60.97;102275.28;688032;28;1308;-80
2022/11/11 03:01:27;;;;;;;4.72;3.78;;;;;;;10.26;60.57;102274.69;687584;28;855;-80
2022/11/11 03:02:07;;;;;;;5.70;3.80;;;;;;;10.31;60.82;102275.81;687235;28;1508;-80
2022/11/11 03:02:46;;;;;;;6.60;3.70;;;;;;;10.33;60.39;102273.28;686028;28;2055;-80
2022/11/11 03:03:25;;;;;;;6.75;3.88;;;;;;;10.33;60.70;102260.25;684919;28;1213;-80
2022/11/11 03:04:05;;;;;;;6.45;4.10;;;;;;;10.38;60.83;102277.94;692326;28;1982;-80
2022/11/11 03:04:44;;;;;;;4.88;3.70;;;;;;;10.35;60.36;102267.34;691685;28;1512;-81
2022/11/11 03:05:23;;;;;;;3.90;3.40;;;;;;;10.52;60.03;102262.09;692833;28;1910;-81
2022/11/11 03:06:02;;;;;;;4.85;3.80;;;;;;;10.45;60.04;102271.31;688670;28;1272;-80
2022/11/11 03:06:42;;;;;;;5.05;3.80;;;;;;;10.40;60.31;102265.84;687547;28;1155;-80
2022/11/11 03:07:22;;;;;;;5.53;3.70;;;;;;;10.41;60.54;102278.13;690639;28;1289;-80
2022/11/11 03:08:02;;;;;;;4.10;3.42;;;;;;;10.40;60.29;102276.28;689413;28;1724;-80
2022/11/11 03:08:41;;;;;;;3.80;3.38;;;;;;;10.45;60.09;102268.69;690510;28;1134;-81
2022/11/11 03:09:20;;;;;;;4.00;3.40;;;;;;;10.36;60.36;102263.00;690237;28;1452;-80
2022/11/11 03:09:59;;;;;;;4.63;3.60;;;;;;;10.38;60.17;102266.63;690010;28;1506;-81
2022/11/11 03:10:38;;;;;;;4.07;3.67;;;;;;;10.38;60.21;102266.63;688099;28;1233;-80
2022/11/11 03:11:26;;;;;;;5.30;3.50;;;;;;;10.34;60.30;102260.34;685479;28;1580;-80
2022/11/11 03:12:05;;;;;;;5.68;3.50;;;;;;;10.34;60.39;102262.94;686560;28;1875;-80
2022/11/11 03:12:44;;;;;;;6.60;3.80;;;;;;;10.44;60.31;102271.25;688715;28;1078;-80
2022/11/11 03:13:23;;;;;;;6.18;3.70;;;;;;;10.33;59.99;102253.28;690960;28;846;-79
2022/11/11 03:14:03;;;;;;;7.38;3.92;;;;;;;10.39;60.18;102255.34;694285;28;1438;-80
2022/11/11 03:14:42;;;;;;;4.28;3.53;;;;;;;10.43;60.00;102269.47;690828;28;1011;-80
2022/11/11 03:15:22;;;;;;;5.70;3.55;;;;;;;10.37;60.13;102255.25;693355;28;1217;-80
2022/11/11 03:16:01;;;;;;;4.70;3.55;;;;;;;10.35;60.15;102256.00;691112;28;1586;-80
2022/11/11 03:17:40;;;;;;;6.35;3.50;;;;;;;10.37;60.18;102264.78;692610;28;1185;-80
2022/11/11 03:18:20;;;;;;;3.70;3.22;;;;;;;10.36;60.01;102257.78;695745;28;1236;-80
2022/11/11 03:18:59;;;;;;;6.50;3.60;;;;;;;10.39;59.75;102247.53;692820;28;1621;-81
2022/11/11 03:19:38;;;;;;;6.43;3.50;;;;;;;10.43;59.79;102243.38;693994;28;1824;-81
2022/11/11 03:21:16;;;;;;;6.18;3.63;;;;;;;10.50;59.55;102256.81;693123;28;1630;-80
2022/11/11 03:21:55;;;;;;;4.57;3.40;;;;;;;10.52;59.57;102256.88;689458;28;1618;-80
2022/11/11 03:22:34;;;;;;;5.55;3.60;;;;;;;10.61;59.45;102257.38;690761;28;1107;-80
2022/11/11 03:23:14;;;;;;;5.68;3.47;;;;;;;10.56;59.60;102245.78;696963;28;1197;-80
2022/11/11 03:23:53;;;;;;;4.55;3.30;;;;;;;10.61;59.46;102257.38;699513;28;1559;-80
2022/11/11 03:25:37;;;;;;;5.15;3.42;;;;;;;10.47;59.32;102254.03;693295;28;1355;-81
2022/11/11 03:26:18;;;;;;;5.88;3.45;;;;;;;10.51;59.52;102263.81;689872;28;1182;-80
2022/11/11 03:26:57;;;;;;;5.55;3.50;;;;;;;10.48;59.40;102257.53;685131;28;1471;-81
2022/11/11 03:27:36;;;;;;;5.25;3.55;;;;;;;10.44;59.59;102259.09;682568;29;1164;-80
2022/11/11 03:28:17;;;;;;;4.20;3.15;;;;;;;10.43;59.62;102256.41;688858;28;1305;-80
2022/11/11 03:28:57;;;;;;;3.40;3.10;;;;;;;10.46;59.57;102267.00;688140;28;1796;-80
2022/11/11 03:29:36;;;;;;;5.50;3.70;;;;;;;10.40;59.21;102250.19;687797;28;1290;-80
2022/11/11 03:30:15;;;;;;;5.45;3.53;;;;;;;10.45;59.68;102260.00;694556;28;1221;-80
2022/11/11 03:30:54;;;;;;;3.50;3.20;;;;;;;10.41;59.49;102256.31;690097;28;1495;-80
2022/11/11 03:31:33;;;;;;;3.90;3.33;;;;;;;10.37;59.58;102250.03;690012;28;800;-80
2022/11/11 03:32:12;;;;;;;9.65;3.70;;;;;;;10.35;59.33;102251.69;686369;28;1485;-80
2022/11/11 03:32:51;;;;;;;7.35;3.80;;;;;;;10.41;59.54;102267.69;692258;28;1859;-80
2022/11/11 03:33:30;;;;;;;5.97;3.10;;;;;;;10.39;59.50;102268.41;687641;28;1295;-80
2022/11/11 03:34:18;;;;;;;5.90;3.40;;;;;;;10.31;59.68;102257.53;690926;28;1189;-80
2022/11/11 03:34:58;;;;;;;6.65;3.45;;;;;;;10.29;59.85;102256.56;692870;28;1529;-80
2022/11/11 03:35:37;;;;;;;7.55;3.50;;;;;;;10.33;59.98;102262.84;691152;28;1277;-80
2022/11/11 03:36:16;;;;;;;9.07;3.50;;;;;;;10.27;59.96;102253.00;690532;28;1257;-80
2022/11/11 03:38:23;;;;;;;7.88;3.13;;;;;;;10.22;59.86;102251.81;691113;28;1792;-80
2022/11/11 03:39:02;;;;;;;5.80;3.10;;;;;;;10.21;59.72;102253.50;692845;28;1570;-80
2022/11/11 03:39:41;;;;;;;4.68;3.08;;;;;;;10.24;60.00;102252.81;690511;28;955;-80
2022/11/11 03:40:20;;;;;;;6.50;3.25;;;;;;;10.17;59.99;102250.66;690654;28;1249;-81
2022/11/11 03:40:59;;;;;;;6.70;3.50;;;;;;;10.04;60.13;102257.84;692313;28;1787;-80
2022/11/11 03:41:38;;;;;;;5.50;3.30;;;;;;;10.01;60.41;102253.34;689552;28;1225;-80
2022/11/11 03:42:17;;;;;;;5.63;3.63;;;;;;;10.13;60.39;102266.16;690905;28;1598;-80
2022/11/11 03:42:56;;;;;;;6.60;3.78;;;;;;;10.11;60.34;102256.44;689934;28;1547;-81
2022/11/11 03:43:42;;;;;;;7.03;3.55;;;;;;;10.18;60.31;102260.31;692849;28;882;-80
2022/11/11 03:44:21;;;;;;;6.05;3.60;;;;;;;10.15;60.10;102254.09;690468;28;1170;-80
2022/11/11 03:45:00;;;;;;;5.90;3.88;;;;;;;10.19;59.85;102255.16;687423;28;1508;-80
2022/11/11 03:45:40;;;;;;;4.70;3.53;;;;;;;10.21;59.88;102252.63;685334;28;1019;-80
2022/11/11 03:46:19;;;;;;;5.07;3.50;;;;;;;10.22;59.70;102260.53;687177;28;1134;-81